sensor_id;sensor_type;location;lat;lon;timestamp;pressure;altitude;pressure_sealevel;temperature
19196;BMP280;9730;48.926;11.376;2022-12-05T00:01:15;96824.25;;;4.19
19196;BMP280;9730;48.926;11.376;2022-12-05T00:03:43;96817.31;;;4.27
19196;BMP280;9730;48.926;11.376;2022-12-05T00:06:10;96818.00;;;4.06
19196;BMP280;9730;48.926;11.376;2022-12-05T00:08:37;96825.34;;;4.11
19196;BMP280;9730;48.926;11.376;2022-12-05T00:11:09;96834.97;;;3.95
19196;BMP280;9730;48.926;11.376;2022-12-05T00:13:36;96834.81;;;4.01
19196;BMP280;9730;48.926;11.376;2022-12-05T00:16:06;96830.31;;;4.12
19196;BMP280;9730;48.926;11.376;2022-12-05T00:18:33;96826.03;;;4.16
19196;BMP280;9730;48.926;11.376;2022-12-05T00:21:00;96828.63;;;4.13
19196;BMP280;9730;48.926;11.376;2022-12-05T00:23:26;96824.38;;;4.15
19196;BMP280;9730;48.926;11.376;2022-12-05T00:25:53;96838.25;;;4.23
19196;BMP280;9730;48.926;11.376;2022-12-05T00:28:21;96847.00;;;4.36
19196;BMP280;9730;48.926;11.376;2022-12-05T00:30:48;96857.84;;;4.09
19196;BMP280;9730;48.926;11.376;2022-12-05T00:33:15;96852.94;;;4.06
19196;BMP280;9730;48.926;11.376;2022-12-05T00:35:42;96839.00;;;3.99
19196;BMP280;9730;48.926;11.376;2022-12-05T00:38:09;96837.38;;;3.98
19196;BMP280;9730;48.926;11.376;2022-12-05T00:40:35;96836.25;;;4.08
19196;BMP280;9730;48.926;11.376;2022-12-05T00:43:02;96838.06;;;4.03
19196;BMP280;9730;48.926;11.376;2022-12-05T00:45:30;96843.91;;;4.02
19196;BMP280;9730;48.926;11.376;2022-12-05T00:47:57;96839.72;;;4.04
19196;BMP280;9730;48.926;11.376;2022-12-05T00:50:23;96848.34;;;4.20
19196;BMP280;9730;48.926;11.376;2022-12-05T00:52:50;96861.44;;;4.26
19196;BMP280;9730;48.926;11.376;2022-12-05T00:55:17;96869.75;;;4.27
19196;BMP280;9730;48.926;11.376;2022-12-05T00:57:43;96883.88;;;4.01
19196;BMP280;9730;48.926;11.376;2022-12-05T01:00:11;96886.84;;;4.13
19196;BMP280;9730;48.926;11.376;2022-12-05T01:02:39;96910.31;;;3.80
19196;BMP280;9730;48.926;11.376;2022-12-05T01:05:06;96902.13;;;3.75
19196;BMP280;9730;48.926;11.376;2022-12-05T01:07:33;96894.84;;;3.69
19196;BMP280;9730;48.926;11.376;2022-12-05T01:09:59;96893.94;;;3.70
19196;BMP280;9730;48.926;11.376;2022-12-05T01:12:27;96893.06;;;3.73
19196;BMP280;9730;48.926;11.376;2022-12-05T01:14:54;96894.03;;;3.67
19196;BMP280;9730;48.926;11.376;2022-12-05T01:17:20;96894.78;;;3.71
19196;BMP280;9730;48.926;11.376;2022-12-05T01:19:48;96892.69;;;3.85
19196;BMP280;9730;48.926;11.376;2022-12-05T01:22:15;96902.09;;;3.77
19196;BMP280;9730;48.926;11.376;2022-12-05T01:24:42;96883.44;;;3.88
19196;BMP280;9730;48.926;11.376;2022-12-05T01:27:09;96888.53;;;3.85
19196;BMP280;9730;48.926;11.376;2022-12-05T01:29:35;96896.78;;;3.87
19196;BMP280;9730;48.926;11.376;2022-12-05T01:32:02;96909.78;;;3.69
19196;BMP280;9730;48.926;11.376;2022-12-05T01:34:29;96905.44;;;3.76
19196;BMP280;9730;48.926;11.376;2022-12-05T01:36:57;96905.72;;;3.67
19196;BMP280;9730;48.926;11.376;2022-12-05T01:39:24;96909.94;;;3.64
19196;BMP280;9730;48.926;11.376;2022-12-05T01:41:51;96900.16;;;3.58
19196;BMP280;9730;48.926;11.376;2022-12-05T01:47:22;96906.00;;;3.57
19196;BMP280;9730;48.926;11.376;2022-12-05T01:49:50;96906.03;;;3.55
19196;BMP280;9730;48.926;11.376;2022-12-05T01:52:20;96897.31;;;3.69
19196;BMP280;9730;48.926;11.376;2022-12-05T01:54:50;96908.66;;;3.79
19196;BMP280;9730;48.926;11.376;2022-12-05T01:57:17;96906.03;;;3.55
19196;BMP280;9730;48.926;11.376;2022-12-05T01:59:46;96919.34;;;3.56
19196;BMP280;9730;48.926;11.376;2022-12-05T02:02:13;96911.97;;;3.51
19196;BMP280;9730;48.926;11.376;2022-12-05T02:04:48;96922.50;;;3.61
19196;BMP280;9730;48.926;11.376;2022-12-05T02:07:17;96928.66;;;3.78
19196;BMP280;9730;48.926;11.376;2022-12-05T02:09:48;96929.38;;;3.81
19196;BMP280;9730;48.926;11.376;2022-12-05T02:12:17;96929.13;;;3.90
19196;BMP280;9730;48.926;11.376;2022-12-05T02:14:47;96930.88;;;3.87
19196;BMP280;9730;48.926;11.376;2022-12-05T02:17:22;96937.75;;;3.79
19196;BMP280;9730;48.926;11.376;2022-12-05T02:20:05;96953.75;;;4.01
19196;BMP280;9730;48.926;11.376;2022-12-05T02:25:52;97004.94;;;3.86
19196;BMP280;9730;48.926;11.376;2022-12-05T02:28:43;97036.44;;;3.90
19196;BMP280;9730;48.926;11.376;2022-12-05T02:31:21;97046.38;;;3.92
19196;BMP280;9730;48.926;11.376;2022-12-05T02:33:57;97059.59;;;3.94
19196;BMP280;9730;48.926;11.376;2022-12-05T02:36:33;97065.03;;;4.08
19196;BMP280;9730;48.926;11.376;2022-12-05T02:39:05;97095.22;;;3.68
19196;BMP280;9730;48.926;11.376;2022-12-05T02:41:37;97096.75;;;3.74
19196;BMP280;9730;48.926;11.376;2022-12-05T02:44:08;97121.31;;;3.57
19196;BMP280;9730;48.926;11.376;2022-12-05T02:46:38;97101.75;;;3.41
19196;BMP280;9730;48.926;11.376;2022-12-05T02:49:08;97107.31;;;3.52
19196;BMP280;9730;48.926;11.376;2022-12-05T02:51:41;97101.03;;;3.36
19196;BMP280;9730;48.926;11.376;2022-12-05T02:54:11;97114.06;;;3.47
19196;BMP280;9730;48.926;11.376;2022-12-05T02:56:41;97112.59;;;3.40
19196;BMP280;9730;48.926;11.376;2022-12-05T02:59:09;97106.50;;;3.50
19196;BMP280;9730;48.926;11.376;2022-12-05T03:01:37;97099.66;;;3.24
19196;BMP280;9730;48.926;11.376;2022-12-05T03:04:05;97118.34;;;3.43
19196;BMP280;9730;48.926;11.376;2022-12-05T03:06:35;97131.91;;;3.30
19196;BMP280;9730;48.926;11.376;2022-12-05T03:09:06;97133.03;;;3.19
19196;BMP280;9730;48.926;11.376;2022-12-05T03:11:37;97125.00;;;3.41
19196;BMP280;9730;48.926;11.376;2022-12-05T03:14:10;97114.31;;;3.38
19196;BMP280;9730;48.926;11.376;2022-12-05T03:16:42;97113.69;;;3.28
19196;BMP280;9730;48.926;11.376;2022-12-05T03:19:12;97112.22;;;3.21
19196;BMP280;9730;48.926;11.376;2022-12-05T03:21:42;97120.22;;;3.34
19196;BMP280;9730;48.926;11.376;2022-12-05T03:24:12;97144.72;;;3.52
19196;BMP280;9730;48.926;11.376;2022-12-05T03:26:46;97142.09;;;3.23
19196;BMP280;9730;48.926;11.376;2022-12-05T03:29:21;97138.75;;;3.22
19196;BMP280;9730;48.926;11.376;2022-12-05T03:31:58;97143.66;;;3.27
19196;BMP280;9730;48.926;11.376;2022-12-05T03:34:39;97152.06;;;3.23
19196;BMP280;9730;48.926;11.376;2022-12-05T03:37:14;97147.03;;;3.24
19196;BMP280;9730;48.926;11.376;2022-12-05T03:39:47;97143.00;;;3.19
19196;BMP280;9730;48.926;11.376;2022-12-05T03:42:18;97155.72;;;3.42
19196;BMP280;9730;48.926;11.376;2022-12-05T03:44:51;97150.91;;;3.36
19196;BMP280;9730;48.926;11.376;2022-12-05T03:47:26;97165.78;;;3.39
19196;BMP280;9730;48.926;11.376;2022-12-05T03:49:57;97183.13;;;3.45
19196;BMP280;9730;48.926;11.376;2022-12-05T03:52:29;97192.84;;;3.19
19196;BMP280;9730;48.926;11.376;2022-12-05T03:54:59;97183.69;;;3.19
19196;BMP280;9730;48.926;11.376;2022-12-05T03:57:31;97182.03;;;3.20
19196;BMP280;9730;48.926;11.376;2022-12-05T04:00:00;97166.69;;;3.00
19196;BMP280;9730;48.926;11.376;2022-12-05T04:02:34;97171.44;;;3.11
19196;BMP280;9730;48.926;11.376;2022-12-05T04:05:13;97176.47;;;3.09
19196;BMP280;9730;48.926;11.376;2022-12-05T04:07:43;97179.63;;;3.17
19196;BMP280;9730;48.926;11.376;2022-12-05T04:10:13;97180.31;;;3.22
19196;BMP280;9730;48.926;11.376;2022-12-05T04:12:42;97189.44;;;3.23
19196;BMP280;9730;48.926;11.376;2022-12-05T04:15:13;97198.34;;;3.33
19196;BMP280;9730;48.926;11.376;2022-12-05T04:17:46;97200.16;;;3.26
19196;BMP280;9730;48.926;11.376;2022-12-05T04:20:14;97200.06;;;3.31
19196;BMP280;9730;48.926;11.376;2022-12-05T04:23:01;97222.00;;;3.15
19196;BMP280;9730;48.926;11.376;2022-12-05T04:25:34;97225.81;;;3.31
19196;BMP280;9730;48.926;11.376;2022-12-05T04:28:14;97242.84;;;3.13
19196;BMP280;9730;48.926;11.376;2022-12-05T04:30:45;97235.03;;;2.89
19196;BMP280;9730;48.926;11.376;2022-12-05T04:33:16;97229.00;;;2.99
19196;BMP280;9730;48.926;11.376;2022-12-05T04:35:49;97226.19;;;3.14
19196;BMP280;9730;48.926;11.376;2022-12-05T04:38:22;97225.41;;;3.13
19196;BMP280;9730;48.926;11.376;2022-12-05T04:40:54;97238.03;;;3.04
19196;BMP280;9730;48.926;11.376;2022-12-05T04:43:23;97248.81;;;3.06
19196;BMP280;9730;48.926;11.376;2022-12-05T04:45:51;97240.78;;;2.92
19196;BMP280;9730;48.926;11.376;2022-12-05T04:48:22;97238.31;;;2.92
19196;BMP280;9730;48.926;11.376;2022-12-05T04:50:52;97235.34;;;2.74
19196;BMP280;9730;48.926;11.376;2022-12-05T04:53:20;97236.72;;;2.88
19196;BMP280;9730;48.926;11.376;2022-12-05T04:55:48;97238.09;;;3.01
19196;BMP280;9730;48.926;11.376;2022-12-05T04:58:18;97255.13;;;2.81
19196;BMP280;9730;48.926;11.376;2022-12-05T05:00:50;97253.50;;;2.80
19196;BMP280;9730;48.926;11.376;2022-12-05T05:03:24;97238.25;;;2.95
19196;BMP280;9730;48.926;11.376;2022-12-05T05:05:54;97240.53;;;3.04
19196;BMP280;9730;48.926;11.376;2022-12-05T05:08:21;97239.47;;;3.14
19196;BMP280;9730;48.926;11.376;2022-12-05T05:10:56;97270.91;;;3.21
19196;BMP280;9730;48.926;11.376;2022-12-05T05:13:26;97277.78;;;3.12
19196;BMP280;9730;48.926;11.376;2022-12-05T05:15:53;97275.22;;;3.15
19196;BMP280;9730;48.926;11.376;2022-12-05T05:18:21;97268.38;;;3.22
19196;BMP280;9730;48.926;11.376;2022-12-05T05:20:47;97273.50;;;3.16
19196;BMP280;9730;48.926;11.376;2022-12-05T05:23:14;97282.47;;;3.23
19196;BMP280;9730;48.926;11.376;2022-12-05T05:25:40;97291.81;;;3.14
19196;BMP280;9730;48.926;11.376;2022-12-05T05:28:07;97279.31;;;3.17
19196;BMP280;9730;48.926;11.376;2022-12-05T05:30:33;97281.06;;;3.12
19196;BMP280;9730;48.926;11.376;2022-12-05T05:33:00;97279.97;;;2.84
19196;BMP280;9730;48.926;11.376;2022-12-05T05:35:28;97259.69;;;2.60
19196;BMP280;9730;48.926;11.376;2022-12-05T05:37:54;97256.13;;;2.73
19196;BMP280;9730;48.926;11.376;2022-12-05T05:40:21;97258.63;;;2.71
19196;BMP280;9730;48.926;11.376;2022-12-05T05:42:48;97266.88;;;2.75
19196;BMP280;9730;48.926;11.376;2022-12-05T05:45:15;97278.97;;;2.93
19196;BMP280;9730;48.926;11.376;2022-12-05T05:47:42;97268.22;;;2.91
19196;BMP280;9730;48.926;11.376;2022-12-05T05:50:09;97269.78;;;2.95
19196;BMP280;9730;48.926;11.376;2022-12-05T05:52:37;97287.16;;;2.98
19196;BMP280;9730;48.926;11.376;2022-12-05T05:55:05;97280.66;;;2.92
19196;BMP280;9730;48.926;11.376;2022-12-05T05:57:32;97275.63;;;2.95
19196;BMP280;9730;48.926;11.376;2022-12-05T05:59:58;97278.56;;;2.73
19196;BMP280;9730;48.926;11.376;2022-12-05T06:02:25;97269.47;;;2.70
19196;BMP280;9730;48.926;11.376;2022-12-05T06:04:56;97294.09;;;2.85
19196;BMP280;9730;48.926;11.376;2022-12-05T06:07:22;97293.22;;;2.86
19196;BMP280;9730;48.926;11.376;2022-12-05T06:09:50;97280.63;;;2.94
19196;BMP280;9730;48.926;11.376;2022-12-05T06:12:17;97291.34;;;2.97
19196;BMP280;9730;48.926;11.376;2022-12-05T06:14:43;97302.13;;;2.99
19196;BMP280;9730;48.926;11.376;2022-12-05T06:17:10;97312.50;;;2.77
19196;BMP280;9730;48.926;11.376;2022-12-05T06:19:36;97324.41;;;2.62
19196;BMP280;9730;48.926;11.376;2022-12-05T06:22:03;97316.25;;;2.55
19196;BMP280;9730;48.926;11.376;2022-12-05T06:24:29;97316.06;;;2.64
19196;BMP280;9730;48.926;11.376;2022-12-05T06:26:57;97305.94;;;2.74
19196;BMP280;9730;48.926;11.376;2022-12-05T06:29:24;97311.81;;;2.70
19196;BMP280;9730;48.926;11.376;2022-12-05T06:31:50;97303.34;;;2.79
19196;BMP280;9730;48.926;11.376;2022-12-05T06:34:17;97293.44;;;2.76
19196;BMP280;9730;48.926;11.376;2022-12-05T06:36:43;97286.66;;;2.82
19196;BMP280;9730;48.926;11.376;2022-12-05T06:39:10;97290.88;;;2.79
19196;BMP280;9730;48.926;11.376;2022-12-05T06:41:36;97303.47;;;2.73
19196;BMP280;9730;48.926;11.376;2022-12-05T06:44:04;97304.88;;;2.41
19196;BMP280;9730;48.926;11.376;2022-12-05T06:46:31;97288.19;;;2.46
19196;BMP280;9730;48.926;11.376;2022-12-05T06:48:58;97296.56;;;2.42
19196;BMP280;9730;48.926;11.376;2022-12-05T06:51:24;97309.84;;;2.41
19196;BMP280;9730;48.926;11.376;2022-12-05T06:53:51;97302.91;;;2.58
19196;BMP280;9730;48.926;11.376;2022-12-05T06:56:18;97312.72;;;2.66
19196;BMP280;9730;48.926;11.376;2022-12-05T06:58:46;97332.09;;;2.51
19196;BMP280;9730;48.926;11.376;2022-12-05T07:01:16;97322.91;;;2.53
19196;BMP280;9730;48.926;11.376;2022-12-05T07:04:01;97312.91;;;2.56
19196;BMP280;9730;48.926;11.376;2022-12-05T07:06:28;97318.00;;;2.50
19196;BMP280;9730;48.926;11.376;2022-12-05T07:08:55;97316.16;;;2.60
19196;BMP280;9730;48.926;11.376;2022-12-05T07:11:21;97323.44;;;2.68
19196;BMP280;9730;48.926;11.376;2022-12-05T07:13:48;97336.88;;;2.60
19196;BMP280;9730;48.926;11.376;2022-12-05T07:16:16;97333.34;;;2.26
19196;BMP280;9730;48.926;11.376;2022-12-05T07:18:43;97319.13;;;2.31
19196;BMP280;9730;48.926;11.376;2022-12-05T07:21:11;97322.47;;;2.32
19196;BMP280;9730;48.926;11.376;2022-12-05T07:23:38;97319.69;;;2.47
19196;BMP280;9730;48.926;11.376;2022-12-05T07:26:05;97327.47;;;2.30
19196;BMP280;9730;48.926;11.376;2022-12-05T07:28:33;97334.97;;;2.29
19196;BMP280;9730;48.926;11.376;2022-12-05T07:31:00;97334.16;;;2.27
19196;BMP280;9730;48.926;11.376;2022-12-05T07:33:28;97328.28;;;2.31
19196;BMP280;9730;48.926;11.376;2022-12-05T07:35:59;97329.72;;;2.44
19196;BMP280;9730;48.926;11.376;2022-12-05T07:38:26;97325.56;;;2.44
19196;BMP280;9730;48.926;11.376;2022-12-05T07:40:53;97334.59;;;2.50
19196;BMP280;9730;48.926;11.376;2022-12-05T07:43:19;97328.66;;;2.57
19196;BMP280;9730;48.926;11.376;2022-12-05T07:45:46;97330.13;;;2.68
19196;BMP280;9730;48.926;11.376;2022-12-05T07:48:12;97341.75;;;2.67
19196;BMP280;9730;48.926;11.376;2022-12-05T07:50:40;97343.88;;;2.87
19196;BMP280;9730;48.926;11.376;2022-12-05T07:53:07;97342.22;;;2.86
19196;BMP280;9730;48.926;11.376;2022-12-05T07:55:33;97347.72;;;3.03
19196;BMP280;9730;48.926;11.376;2022-12-05T07:58:00;97360.97;;;3.05
19196;BMP280;9730;48.926;11.376;2022-12-05T08:00:26;97371.88;;;2.99
19196;BMP280;9730;48.926;11.376;2022-12-05T08:02:53;97377.50;;;3.09
19196;BMP280;9730;48.926;11.376;2022-12-05T08:05:20;97402.84;;;2.86
19196;BMP280;9730;48.926;11.376;2022-12-05T08:07:47;97395.34;;;2.88
19196;BMP280;9730;48.926;11.376;2022-12-05T08:10:14;97392.91;;;2.85
19196;BMP280;9730;48.926;11.376;2022-12-05T08:12:41;97395.28;;;2.91
19196;BMP280;9730;48.926;11.376;2022-12-05T08:15:08;97400.03;;;3.03
19196;BMP280;9730;48.926;11.376;2022-12-05T08:17:35;97416.53;;;3.10
19196;BMP280;9730;48.926;11.376;2022-12-05T08:20:02;97423.03;;;2.71
19196;BMP280;9730;48.926;11.376;2022-12-05T08:22:28;97420.50;;;2.74
19196;BMP280;9730;48.926;11.376;2022-12-05T08:24:56;97409.53;;;2.84
19196;BMP280;9730;48.926;11.376;2022-12-05T08:27:23;97414.78;;;2.69
19196;BMP280;9730;48.926;11.376;2022-12-05T08:29:49;97407.03;;;2.84
19196;BMP280;9730;48.926;11.376;2022-12-05T08:32:16;97423.28;;;3.05
19196;BMP280;9730;48.926;11.376;2022-12-05T08:34:43;97417.69;;;2.91
19196;BMP280;9730;48.926;11.376;2022-12-05T08:37:09;97419.38;;;2.90
19196;BMP280;9730;48.926;11.376;2022-12-05T08:39:36;97428.22;;;3.08
19196;BMP280;9730;48.926;11.376;2022-12-05T08:42:04;97432.75;;;2.85
19196;BMP280;9730;48.926;11.376;2022-12-05T08:44:30;97426.44;;;2.67
19196;BMP280;9730;48.926;11.376;2022-12-05T08:46:57;97427.16;;;2.72
19196;BMP280;9730;48.926;11.376;2022-12-05T08:49:23;97425.63;;;2.65
19196;BMP280;9730;48.926;11.376;2022-12-05T08:51:50;97431.44;;;2.64
19196;BMP280;9730;48.926;11.376;2022-12-05T08:54:16;97435.81;;;2.54
19196;BMP280;9730;48.926;11.376;2022-12-05T08:56:43;97439.84;;;2.58
19196;BMP280;9730;48.926;11.376;2022-12-05T08:59:11;97430.78;;;2.57
19196;BMP280;9730;48.926;11.376;2022-12-05T09:01:37;97434.81;;;2.63
19196;BMP280;9730;48.926;11.376;2022-12-05T09:04:06;97437.34;;;2.59
19196;BMP280;9730;48.926;11.376;2022-12-05T09:06:33;97443.13;;;2.63
19196;BMP280;9730;48.926;11.376;2022-12-05T09:09:02;97450.09;;;2.91
19196;BMP280;9730;48.926;11.376;2022-12-05T09:11:30;97442.34;;;3.06
19196;BMP280;9730;48.926;11.376;2022-12-05T09:13:58;97443.97;;;3.08
19196;BMP280;9730;48.926;11.376;2022-12-05T09:16:28;97454.53;;;3.20
19196;BMP280;9730;48.926;11.376;2022-12-05T09:18:55;97454.66;;;3.15
19196;BMP280;9730;48.926;11.376;2022-12-05T09:21:24;97465.41;;;3.16
19196;BMP280;9730;48.926;11.376;2022-12-05T09:23:51;97464.09;;;2.99
19196;BMP280;9730;48.926;11.376;2022-12-05T09:26:21;97472.16;;;3.12
19196;BMP280;9730;48.926;11.376;2022-12-05T09:28:49;97484.16;;;2.90
19196;BMP280;9730;48.926;11.376;2022-12-05T09:31:17;97476.59;;;2.95
19196;BMP280;9730;48.926;11.376;2022-12-05T09:33:46;97488.94;;;3.02
19196;BMP280;9730;48.926;11.376;2022-12-05T09:36:15;97475.53;;;3.09
19196;BMP280;9730;48.926;11.376;2022-12-05T09:38:42;97498.69;;;3.14
19196;BMP280;9730;48.926;11.376;2022-12-05T09:41:16;97497.81;;;3.16
19196;BMP280;9730;48.926;11.376;2022-12-05T09:43:50;97491.91;;;3.22
19196;BMP280;9730;48.926;11.376;2022-12-05T09:46:32;97495.66;;;3.44
19196;BMP280;9730;48.926;11.376;2022-12-05T09:49:03;97494.44;;;3.64
19196;BMP280;9730;48.926;11.376;2022-12-05T09:51:31;97509.38;;;3.66
19196;BMP280;9730;48.926;11.376;2022-12-05T09:53:58;97510.81;;;3.33
19196;BMP280;9730;48.926;11.376;2022-12-05T09:56:26;97497.34;;;3.42
19196;BMP280;9730;48.926;11.376;2022-12-05T09:58:56;97489.47;;;3.19
19196;BMP280;9730;48.926;11.376;2022-12-05T10:01:30;97490.00;;;3.36
19196;BMP280;9730;48.926;11.376;2022-12-05T10:04:14;97489.78;;;3.48
19196;BMP280;9730;48.926;11.376;2022-12-05T10:06:49;97494.41;;;3.22
19196;BMP280;9730;48.926;11.376;2022-12-05T10:09:44;97483.50;;;3.27
19196;BMP280;9730;48.926;11.376;2022-12-05T10:12:18;97489.00;;;3.44
19196;BMP280;9730;48.926;11.376;2022-12-05T10:14:53;97490.84;;;3.33
19196;BMP280;9730;48.926;11.376;2022-12-05T10:17:26;97470.72;;;2.99
19196;BMP280;9730;48.926;11.376;2022-12-05T10:19:57;97461.25;;;3.18
19196;BMP280;9730;48.926;11.376;2022-12-05T10:22:29;97451.69;;;3.40
19196;BMP280;9730;48.926;11.376;2022-12-05T10:25:00;97450.63;;;3.51
19196;BMP280;9730;48.926;11.376;2022-12-05T10:27:31;97468.84;;;3.11
19196;BMP280;9730;48.926;11.376;2022-12-05T10:30:01;97460.56;;;3.09
19196;BMP280;9730;48.926;11.376;2022-12-05T10:32:31;97457.03;;;3.20
19196;BMP280;9730;48.926;11.376;2022-12-05T10:35:13;97457.09;;;3.17
19196;BMP280;9730;48.926;11.376;2022-12-05T10:37:42;97467.19;;;3.10
19196;BMP280;9730;48.926;11.376;2022-12-05T10:40:12;97465.00;;;2.94
19196;BMP280;9730;48.926;11.376;2022-12-05T10:42:39;97478.00;;;2.61
19196;BMP280;9730;48.926;11.376;2022-12-05T10:45:12;97474.97;;;2.43
19196;BMP280;9730;48.926;11.376;2022-12-05T10:47:39;97468.34;;;2.42
19196;BMP280;9730;48.926;11.376;2022-12-05T10:50:22;97460.03;;;2.43
19196;BMP280;9730;48.926;11.376;2022-12-05T10:52:51;97441.22;;;2.25
19196;BMP280;9730;48.926;11.376;2022-12-05T10:55:18;97443.31;;;2.49
19196;BMP280;9730;48.926;11.376;2022-12-05T10:57:49;97438.22;;;2.58
19196;BMP280;9730;48.926;11.376;2022-12-05T11:00:21;97430.06;;;2.49
19196;BMP280;9730;48.926;11.376;2022-12-05T11:02:49;97413.09;;;2.70
19196;BMP280;9730;48.926;11.376;2022-12-05T11:05:28;97415.28;;;2.86
19196;BMP280;9730;48.926;11.376;2022-12-05T11:07:55;97426.13;;;2.85
19196;BMP280;9730;48.926;11.376;2022-12-05T11:10:26;97427.72;;;2.88
19196;BMP280;9730;48.926;11.376;2022-12-05T11:12:55;97430.84;;;2.99
19196;BMP280;9730;48.926;11.376;2022-12-05T11:15:24;97423.22;;;3.08
19196;BMP280;9730;48.926;11.376;2022-12-05T11:17:53;97414.88;;;3.09
19196;BMP280;9730;48.926;11.376;2022-12-05T11:20:40;97419.59;;;3.23
19196;BMP280;9730;48.926;11.376;2022-12-05T11:23:25;97426.03;;;3.33
19196;BMP280;9730;48.926;11.376;2022-12-05T11:25:52;97440.25;;;3.30
19196;BMP280;9730;48.926;11.376;2022-12-05T11:28:28;97442.59;;;3.36
19196;BMP280;9730;48.926;11.376;2022-12-05T11:30:57;97448.94;;;3.10
19196;BMP280;9730;48.926;11.376;2022-12-05T11:33:25;97437.81;;;3.27
19196;BMP280;9730;48.926;11.376;2022-12-05T11:35:58;97440.97;;;3.36
19196;BMP280;9730;48.926;11.376;2022-12-05T11:38:27;97453.22;;;3.45
19196;BMP280;9730;48.926;11.376;2022-12-05T11:41:07;97440.06;;;3.39
19196;BMP280;9730;48.926;11.376;2022-12-05T11:43:52;97438.47;;;3.35
19196;BMP280;9730;48.926;11.376;2022-12-05T11:46:30;97439.81;;;3.52
19196;BMP280;9730;48.926;11.376;2022-12-05T11:49:11;97446.41;;;3.55
19196;BMP280;9730;48.926;11.376;2022-12-05T11:51:47;97457.25;;;3.09
19196;BMP280;9730;48.926;11.376;2022-12-05T11:54:53;97438.47;;;3.35
19196;BMP280;9730;48.926;11.376;2022-12-05T11:57:27;97444.75;;;3.54
19196;BMP280;9730;48.926;11.376;2022-12-05T12:00:13;97444.50;;;3.67
19196;BMP280;9730;48.926;11.376;2022-12-05T12:05:33;97449.88;;;3.48
19196;BMP280;9730;48.926;11.376;2022-12-05T12:08:13;97443.84;;;3.14
19196;BMP280;9730;48.926;11.376;2022-12-05T12:10:50;97436.13;;;3.27
19196;BMP280;9730;48.926;11.376;2022-12-05T12:13:29;97431.47;;;3.10
19196;BMP280;9730;48.926;11.376;2022-12-05T12:16:07;97425.50;;;3.18
19196;BMP280;9730;48.926;11.376;2022-12-05T12:19:02;97410.25;;;3.33
19196;BMP280;9730;48.926;11.376;2022-12-05T12:21:45;97413.53;;;3.36
19196;BMP280;9730;48.926;11.376;2022-12-05T12:24:22;97409.91;;;3.51
19196;BMP280;9730;48.926;11.376;2022-12-05T12:27:01;97421.50;;;3.53
19196;BMP280;9730;48.926;11.376;2022-12-05T12:29:41;97415.50;;;3.62
19196;BMP280;9730;48.926;11.376;2022-12-05T12:32:22;97405.34;;;3.69
19196;BMP280;9730;48.926;11.376;2022-12-05T12:35:22;97416.41;;;3.58
19196;BMP280;9730;48.926;11.376;2022-12-05T12:38:10;97412.56;;;3.42
19196;BMP280;9730;48.926;11.376;2022-12-05T12:40:47;97402.75;;;3.34
19196;BMP280;9730;48.926;11.376;2022-12-05T12:43:22;97403.56;;;3.35
19196;BMP280;9730;48.926;11.376;2022-12-05T12:46:10;97391.97;;;3.34
19196;BMP280;9730;48.926;11.376;2022-12-05T12:48:48;97376.97;;;3.35
19196;BMP280;9730;48.926;11.376;2022-12-05T12:51:20;97384.25;;;3.44
19196;BMP280;9730;48.926;11.376;2022-12-05T12:54:02;97392.34;;;3.55
19196;BMP280;9730;48.926;11.376;2022-12-05T12:56:40;97384.31;;;3.41
19196;BMP280;9730;48.926;11.376;2022-12-05T12:59:21;97379.34;;;3.41
19196;BMP280;9730;48.926;11.376;2022-12-05T13:01:54;97379.13;;;3.52
19196;BMP280;9730;48.926;11.376;2022-12-05T13:04:24;97383.06;;;3.62
19196;BMP280;9730;48.926;11.376;2022-12-05T13:06:56;97368.84;;;3.65
19196;BMP280;9730;48.926;11.376;2022-12-05T13:09:27;97373.97;;;3.59
19196;BMP280;9730;48.926;11.376;2022-12-05T13:12:05;97363.63;;;3.75
19196;BMP280;9730;48.926;11.376;2022-12-05T13:14:35;97361.00;;;3.81
19196;BMP280;9730;48.926;11.376;2022-12-05T13:17:04;97368.25;;;3.54
19196;BMP280;9730;48.926;11.376;2022-12-05T13:19:40;97362.28;;;3.63
19196;BMP280;9730;48.926;11.376;2022-12-05T13:22:08;97361.31;;;3.67
19196;BMP280;9730;48.926;11.376;2022-12-05T13:24:35;97369.47;;;3.74
19196;BMP280;9730;48.926;11.376;2022-12-05T13:27:05;97368.63;;;3.75
19196;BMP280;9730;48.926;11.376;2022-12-05T13:29:35;97379.69;;;3.64
19196;BMP280;9730;48.926;11.376;2022-12-05T13:32:04;97369.78;;;3.60
19196;BMP280;9730;48.926;11.376;2022-12-05T13:34:44;97359.78;;;3.61
19196;BMP280;9730;48.926;11.376;2022-12-05T13:37:16;97359.00;;;3.59
19196;BMP280;9730;48.926;11.376;2022-12-05T13:40:01;97367.13;;;3.68
19196;BMP280;9730;48.926;11.376;2022-12-05T13:42:46;97352.91;;;3.72
19196;BMP280;9730;48.926;11.376;2022-12-05T13:45:17;97346.84;;;3.83
19196;BMP280;9730;48.926;11.376;2022-12-05T13:47:54;97343.28;;;3.93
19196;BMP280;9730;48.926;11.376;2022-12-05T13:50:30;97334.78;;;4.00
19196;BMP280;9730;48.926;11.376;2022-12-05T13:53:02;97330.50;;;4.05
19196;BMP280;9730;48.926;11.376;2022-12-05T13:55:32;97333.91;;;4.03
19196;BMP280;9730;48.926;11.376;2022-12-05T13:58:02;97343.84;;;4.04
19196;BMP280;9730;48.926;11.376;2022-12-05T14:00:31;97353.03;;;4.02
19196;BMP280;9730;48.926;11.376;2022-12-05T14:02:59;97354.22;;;3.88
19196;BMP280;9730;48.926;11.376;2022-12-05T14:05:49;97356.81;;;3.83
19196;BMP280;9730;48.926;11.376;2022-12-05T14:11:22;97334.91;;;3.96
19196;BMP280;9730;48.926;11.376;2022-12-05T14:13:53;97349.72;;;4.02
19196;BMP280;9730;48.926;11.376;2022-12-05T14:16:44;97354.28;;;3.85
19196;BMP280;9730;48.926;11.376;2022-12-05T14:19:23;97340.13;;;3.85
19196;BMP280;9730;48.926;11.376;2022-12-05T14:22:00;97340.13;;;3.85
19196;BMP280;9730;48.926;11.376;2022-12-05T14:24:31;97339.16;;;3.91
19196;BMP280;9730;48.926;11.376;2022-12-05T14:27:05;97333.63;;;3.78
19196;BMP280;9730;48.926;11.376;2022-12-05T14:29:40;97326.38;;;3.69
19196;BMP280;9730;48.926;11.376;2022-12-05T14:32:19;97314.31;;;3.86
19196;BMP280;9730;48.926;11.376;2022-12-05T14:34:53;97307.56;;;3.90
19196;BMP280;9730;48.926;11.376;2022-12-05T14:37:25;97303.28;;;3.96
19196;BMP280;9730;48.926;11.376;2022-12-05T14:39:54;97294.09;;;3.97
19196;BMP280;9730;48.926;11.376;2022-12-05T14:42:22;97291.72;;;3.92
19196;BMP280;9730;48.926;11.376;2022-12-05T14:44:54;97297.78;;;3.82
19196;BMP280;9730;48.926;11.376;2022-12-05T14:47:23;97284.47;;;3.83
19196;BMP280;9730;48.926;11.376;2022-12-05T14:49:51;97281.66;;;3.95
19196;BMP280;9730;48.926;11.376;2022-12-05T14:52:20;97274.13;;;3.97
19196;BMP280;9730;48.926;11.376;2022-12-05T14:54:48;97268.59;;;3.84